sensor_id;sensor_type;location;lat;lon;timestamp;P1;P2;P0
56495;PMS5003;42804;55.762;38.084;2023-09-08T00:00:51;1.00;1.00;0.00
56495;PMS5003;42804;55.762;38.084;2023-09-08T00:03:21;0.50;0.50;0.25
56495;PMS5003;42804;55.762;38.084;2023-09-08T00:05:50;2.00;2.00;1.25
56495;PMS5003;42804;55.762;38.084;2023-09-08T00:08:18;1.50;1.50;1.00
56495;PMS5003;42804;55.762;38.084;2023-09-08T00:10:47;2.25;2.00;1.00
56495;PMS5003;42804;55.762;38.084;2023-09-08T00:13:15;1.00;1.00;0.00
56495;PMS5003;42804;55.762;38.084;2023-09-08T00:15:44;1.00;1.00;0.00
56495;PMS5003;42804;55.762;38.084;2023-09-08T00:18:14;1.75;1.25;0.25
56495;PMS5003;42804;55.762;38.084;2023-09-08T00:20:42;2.00;1.00;1.00
56495;PMS5003;42804;55.762;38.084;2023-09-08T00:23:11;2.00;1.50;0.75
56495;PMS5003;42804;55.762;38.084;2023-09-08T00:25:39;0.50;0.50;0.00
56495;PMS5003;42804;55.762;38.084;2023-09-08T00:28:08;1.00;1.00;1.00
56495;PMS5003;42804;55.762;38.084;2023-09-08T00:30:36;3.00;2.00;1.25
56495;PMS5003;42804;55.762;38.084;2023-09-08T00:33:04;2.00;1.75;1.25
56495;PMS5003;42804;55.762;38.084;2023-09-08T00:35:38;2.00;1.00;0.00
56495;PMS5003;42804;55.762;38.084;2023-09-08T00:38:06;2.25;1.75;1.00
56495;PMS5003;42804;55.762;38.084;2023-09-08T00:40:35;1.00;1.00;1.00
56495;PMS5003;42804;55.762;38.084;2023-09-08T00:43:04;1.00;1.00;1.00
56495;PMS5003;42804;55.762;38.084;2023-09-08T00:45:32;1.00;1.00;0.00
56495;PMS5003;42804;55.762;38.084;2023-09-08T00:48:04;3.25;2.00;1.00
56495;PMS5003;42804;55.762;38.084;2023-09-08T00:50:33;2.00;2.00;1.00
56495;PMS5003;42804;55.762;38.084;2023-09-08T00:53:03;1.50;1.00;0.00
56495;PMS5003;42804;55.762;38.084;2023-09-08T00:55:32;1.75;1.75;1.00
56495;PMS5003;42804;55.762;38.084;2023-09-08T00:58:01;2.00;2.00;1.00
56495;PMS5003;42804;55.762;38.084;2023-09-08T01:00:30;1.50;1.00;1.00
56495;PMS5003;42804;55.762;38.084;2023-09-08T01:02:59;2.00;1.00;1.00
56495;PMS5003;42804;55.762;38.084;2023-09-08T01:05:28;1.00;1.00;1.00
56495;PMS5003;42804;55.762;38.084;2023-09-08T01:07:56;1.50;1.50;0.75
56495;PMS5003;42804;55.762;38.084;2023-09-08T01:10:28;2.50;2.25;1.00
56495;PMS5003;42804;55.762;38.084;2023-09-08T01:12:57;1.00;1.00;0.50
56495;PMS5003;42804;55.762;38.084;2023-09-08T01:15:25;1.50;1.50;1.25
56495;PMS5003;42804;55.762;38.084;2023-09-08T01:17:53;2.00;2.00;1.00
56495;PMS5003;42804;55.762;38.084;2023-09-08T01:20:22;1.25;0.75;0.00
56495;PMS5003;42804;55.762;38.084;2023-09-08T01:25:41;2.00;2.00;1.00
56495;PMS5003;42804;55.762;38.084;2023-09-08T01:28:12;1.00;0.00;0.00
56495;PMS5003;42804;55.762;38.084;2023-09-08T01:30:41;2.75;2.50;1.25
56495;PMS5003;42804;55.762;38.084;2023-09-08T01:33:11;2.00;2.00;2.00
56495;PMS5003;42804;55.762;38.084;2023-09-08T01:35:39;1.00;1.00;0.25
56495;PMS5003;42804;55.762;38.084;2023-09-08T01:38:07;1.50;1.00;0.00
56495;PMS5003;42804;55.762;38.084;2023-09-08T01:40:36;2.00;2.00;1.00
56495;PMS5003;42804;55.762;38.084;2023-09-08T01:43:06;1.25;1.25;0.75
56495;PMS5003;42804;55.762;38.084;2023-09-08T01:45:34;1.25;1.00;1.00
56495;PMS5003;42804;55.762;38.084;2023-09-08T01:48:03;4.75;3.25;1.00
56495;PMS5003;42804;55.762;38.084;2023-09-08T01:50:31;2.00;1.00;1.00
56495;PMS5003;42804;55.762;38.084;2023-09-08T01:52:59;2.00;2.00;1.25
56495;PMS5003;42804;55.762;38.084;2023-09-08T01:55:28;1.00;1.00;0.50
56495;PMS5003;42804;55.762;38.084;2023-09-08T01:57:57;1.75;1.25;0.50
56495;PMS5003;42804;55.762;38.084;2023-09-08T02:00:29;1.00;0.50;0.50
56495;PMS5003;42804;55.762;38.084;2023-09-08T02:02:57;2.00;2.00;0.50
56495;PMS5003;42804;55.762;38.084;2023-09-08T02:05:27;0.75;0.75;0.00
56495;PMS5003;42804;55.762;38.084;2023-09-08T02:07:55;1.50;0.50;0.50
56495;PMS5003;42804;55.762;38.084;2023-09-08T02:10:24;3.00;2.50;2.00
56495;PMS5003;42804;55.762;38.084;2023-09-08T02:12:52;2.00;1.25;1.00
56495;PMS5003;42804;55.762;38.084;2023-09-08T02:15:21;3.50;1.75;1.00
56495;PMS5003;42804;55.762;38.084;2023-09-08T02:17:52;1.25;1.00;1.00
56495;PMS5003;42804;55.762;38.084;2023-09-08T02:20:40;2.25;1.75;0.25
56495;PMS5003;42804;55.762;38.084;2023-09-08T02:23:08;0.50;0.50;0.50
56495;PMS5003;42804;55.762;38.084;2023-09-08T02:25:37;1.00;1.00;0.00
56495;PMS5003;42804;55.762;38.084;2023-09-08T02:28:06;2.00;1.00;1.00
56495;PMS5003;42804;55.762;38.084;2023-09-08T02:30:34;0.75;0.75;0.00
56495;PMS5003;42804;55.762;38.084;2023-09-08T02:33:05;1.00;1.00;0.00
56495;PMS5003;42804;55.762;38.084;2023-09-08T02:35:35;2.00;1.25;0.50
56495;PMS5003;42804;55.762;38.084;2023-09-08T02:38:04;1.75;1.75;1.00
56495;PMS5003;42804;55.762;38.084;2023-09-08T02:40:32;1.50;1.50;1.00
56495;PMS5003;42804;55.762;38.084;2023-09-08T02:43:03;2.00;2.00;1.00
56495;PMS5003;42804;55.762;38.084;2023-09-08T02:45:32;2.75;2.75;1.50
56495;PMS5003;42804;55.762;38.084;2023-09-08T02:48:02;0.00;0.00;0.00
56495;PMS5003;42804;55.762;38.084;2023-09-08T02:50:33;1.00;1.00;1.00
56495;PMS5003;42804;55.762;38.084;2023-09-08T02:53:01;2.00;1.00;0.75
56495;PMS5003;42804;55.762;38.084;2023-09-08T02:55:30;2.50;2.00;1.00
56495;PMS5003;42804;55.762;38.084;2023-09-08T02:57:58;3.00;3.00;0.75
56495;PMS5003;42804;55.762;38.084;2023-09-08T03:00:27;1.50;1.00;0.25
56495;PMS5003;42804;55.762;38.084;2023-09-08T03:02:56;1.00;0.50;0.00
56495;PMS5003;42804;55.762;38.084;2023-09-08T03:05:25;2.00;2.00;1.00
56495;PMS5003;42804;55.762;38.084;2023-09-08T03:07:55;4.00;2.00;1.00
56495;PMS5003;42804;55.762;38.084;2023-09-08T03:10:23;1.00;1.00;0.25
56495;PMS5003;42804;55.762;38.084;2023-09-08T03:12:51;2.50;1.00;0.50
56495;PMS5003;42804;55.762;38.084;2023-09-08T03:15:19;1.00;1.00;0.00
56495;PMS5003;42804;55.762;38.084;2023-09-08T03:17:48;0.00;0.00;0.00
56495;PMS5003;42804;55.762;38.084;2023-09-08T03:20:16;2.00;1.25;1.00
56495;PMS5003;42804;55.762;38.084;2023-09-08T03:22:44;2.00;2.00;1.00
56495;PMS5003;42804;55.762;38.084;2023-09-08T03:25:14;2.00;2.00;1.00
56495;PMS5003;42804;55.762;38.084;2023-09-08T03:27:42;0.50;0.50;0.00
56495;PMS5003;42804;55.762;38.084;2023-09-08T03:30:11;1.00;1.00;0.00
56495;PMS5003;42804;55.762;38.084;2023-09-08T03:32:39;1.00;1.00;1.00
56495;PMS5003;42804;55.762;38.084;2023-09-08T03:35:08;0.50;0.50;0.00
56495;PMS5003;42804;55.762;38.084;2023-09-08T03:37:38;2.00;1.75;0.00
56495;PMS5003;42804;55.762;38.084;2023-09-08T03:40:06;2.00;2.00;1.00
56495;PMS5003;42804;55.762;38.084;2023-09-08T03:42:37;1.00;1.00;0.00
56495;PMS5003;42804;55.762;38.084;2023-09-08T03:45:08;1.00;1.00;0.25
56495;PMS5003;42804;55.762;38.084;2023-09-08T03:47:36;2.00;2.00;0.75
56495;PMS5003;42804;55.762;38.084;2023-09-08T03:50:05;1.50;1.50;1.00
56495;PMS5003;42804;55.762;38.084;2023-09-08T03:52:34;0.00;0.00;0.00
56495;PMS5003;42804;55.762;38.084;2023-09-08T03:55:03;1.00;1.00;0.25
56495;PMS5003;42804;55.762;38.084;2023-09-08T03:57:33;1.00;1.00;1.00
56495;PMS5003;42804;55.762;38.084;2023-09-08T04:00:02;1.00;1.00;0.00
56495;PMS5003;42804;55.762;38.084;2023-09-08T04:02:40;1.50;1.50;1.00
56495;PMS5003;42804;55.762;38.084;2023-09-08T04:05:09;1.25;1.25;0.00
56495;PMS5003;42804;55.762;38.084;2023-09-08T04:07:38;1.25;1.00;0.75
56495;PMS5003;42804;55.762;38.084;2023-09-08T04:10:07;1.00;1.00;0.00
56495;PMS5003;42804;55.762;38.084;2023-09-08T04:12:36;1.00;1.00;0.00
56495;PMS5003;42804;55.762;38.084;2023-09-08T04:15:06;0.25;0.00;0.00
56495;PMS5003;42804;55.762;38.084;2023-09-08T04:17:38;0.50;0.50;0.00
56495;PMS5003;42804;55.762;38.084;2023-09-08T04:20:07;0.25;0.00;0.00
56495;PMS5003;42804;55.762;38.084;2023-09-08T04:22:35;0.50;0.00;0.00
56495;PMS5003;42804;55.762;38.084;2023-09-08T04:25:04;0.00;0.00;0.00
56495;PMS5003;42804;55.762;38.084;2023-09-08T04:27:32;0.00;0.00;0.00
56495;PMS5003;42804;55.762;38.084;2023-09-08T04:30:03;0.00;0.00;0.00
56495;PMS5003;42804;55.762;38.084;2023-09-08T04:32:34;0.75;0.00;0.00
56495;PMS5003;42804;55.762;38.084;2023-09-08T04:35:04;0.00;0.00;0.00
56495;PMS5003;42804;55.762;38.084;2023-09-08T04:37:34;0.75;0.25;0.00
56495;PMS5003;42804;55.762;38.084;2023-09-08T04:40:04;0.00;0.00;0.00
56495;PMS5003;42804;55.762;38.084;2023-09-08T04:42:33;0.00;0.00;0.00
56495;PMS5003;42804;55.762;38.084;2023-09-08T04:45:02;0.00;0.00;0.00
56495;PMS5003;42804;55.762;38.084;2023-09-08T04:47:32;1.00;0.00;0.00
56495;PMS5003;42804;55.762;38.084;2023-09-08T04:50:02;0.75;0.50;0.00
56495;PMS5003;42804;55.762;38.084;2023-09-08T04:52:31;0.50;0.50;0.00
56495;PMS5003;42804;55.762;38.084;2023-09-08T04:55:01;0.00;0.00;0.00
56495;PMS5003;42804;55.762;38.084;2023-09-08T04:57:30;0.25;0.25;0.00
56495;PMS5003;42804;55.762;38.084;2023-09-08T04:59:59;0.50;0.50;0.00
56495;PMS5003;42804;55.762;38.084;2023-09-08T05:02:33;0.00;0.00;0.00
56495;PMS5003;42804;55.762;38.084;2023-09-08T05:05:05;0.00;0.00;0.00
56495;PMS5003;42804;55.762;38.084;2023-09-08T05:07:33;1.00;0.00;0.00
56495;PMS5003;42804;55.762;38.084;2023-09-08T05:10:02;0.00;0.00;0.00
56495;PMS5003;42804;55.762;38.084;2023-09-08T05:12:34;1.00;1.00;0.00
56495;PMS5003;42804;55.762;38.084;2023-09-08T05:15:02;1.00;0.25;0.00
56495;PMS5003;42804;55.762;38.084;2023-09-08T05:17:36;0.00;0.00;0.00
56495;PMS5003;42804;55.762;38.084;2023-09-08T05:20:07;0.00;0.00;0.00
56495;PMS5003;42804;55.762;38.084;2023-09-08T05:22:36;0.75;0.00;0.00
56495;PMS5003;42804;55.762;38.084;2023-09-08T05:25:06;1.00;1.00;0.00
56495;PMS5003;42804;55.762;38.084;2023-09-08T05:27:38;0.00;0.00;0.00
56495;PMS5003;42804;55.762;38.084;2023-09-08T05:30:07;0.00;0.00;0.00
56495;PMS5003;42804;55.762;38.084;2023-09-08T05:32:37;0.00;0.00;0.00
56495;PMS5003;42804;55.762;38.084;2023-09-08T05:35:07;0.00;0.00;0.00
56495;PMS5003;42804;55.762;38.084;2023-09-08T05:37:36;0.00;0.00;0.00
56495;PMS5003;42804;55.762;38.084;2023-09-08T05:40:06;0.00;0.00;0.00
56495;PMS5003;42804;55.762;38.084;2023-09-08T05:42:34;1.25;0.00;0.00
56495;PMS5003;42804;55.762;38.084;2023-09-08T05:45:03;0.00;0.00;0.00
56495;PMS5003;42804;55.762;38.084;2023-09-08T05:47:32;0.50;0.50;0.00
56495;PMS5003;42804;55.762;38.084;2023-09-08T05:50:03;0.25;0.00;0.00
56495;PMS5003;42804;55.762;38.084;2023-09-08T05:52:34;0.75;0.00;0.00
56495;PMS5003;42804;55.762;38.084;2023-09-08T05:55:03;0.00;0.00;0.00
56495;PMS5003;42804;55.762;38.084;2023-09-08T05:57:31;0.00;0.00;0.00
56495;PMS5003;42804;55.762;38.084;2023-09-08T06:00:02;1.00;0.00;0.00
56495;PMS5003;42804;55.762;38.084;2023-09-08T06:02:39;0.00;0.00;0.00
56495;PMS5003;42804;55.762;38.084;2023-09-08T06:05:11;1.00;0.25;0.00
56495;PMS5003;42804;55.762;38.084;2023-09-08T06:07:41;0.00;0.00;0.00
56495;PMS5003;42804;55.762;38.084;2023-09-08T06:10:28;0.00;0.00;0.00
56495;PMS5003;42804;55.762;38.084;2023-09-08T06:12:58;2.00;1.25;0.00
56495;PMS5003;42804;55.762;38.084;2023-09-08T06:15:27;0.00;0.00;0.00
56495;PMS5003;42804;55.762;38.084;2023-09-08T06:17:55;1.00;1.00;0.00
56495;PMS5003;42804;55.762;38.084;2023-09-08T06:20:24;1.00;1.00;0.00
56495;PMS5003;42804;55.762;38.084;2023-09-08T06:22:55;0.75;0.75;0.00
56495;PMS5003;42804;55.762;38.084;2023-09-08T06:25:24;0.25;0.25;0.00
56495;PMS5003;42804;55.762;38.084;2023-09-08T06:27:53;0.00;0.00;0.00
56495;PMS5003;42804;55.762;38.084;2023-09-08T06:30:22;0.00;0.00;0.00
56495;PMS5003;42804;55.762;38.084;2023-09-08T06:32:51;1.00;0.00;0.00
56495;PMS5003;42804;55.762;38.084;2023-09-08T06:35:19;0.00;0.00;0.00
56495;PMS5003;42804;55.762;38.084;2023-09-08T06:37:48;0.00;0.00;0.00
56495;PMS5003;42804;55.762;38.084;2023-09-08T06:40:17;0.00;0.00;0.00
56495;PMS5003;42804;55.762;38.084;2023-09-08T06:42:46;0.00;0.00;0.00
56495;PMS5003;42804;55.762;38.084;2023-09-08T06:45:27;0.00;0.00;0.00
56495;PMS5003;42804;55.762;38.084;2023-09-08T06:47:56;0.75;0.00;0.00
56495;PMS5003;42804;55.762;38.084;2023-09-08T06:50:27;0.25;0.00;0.00
56495;PMS5003;42804;55.762;38.084;2023-09-08T06:52:58;0.00;0.00;0.00
56495;PMS5003;42804;55.762;38.084;2023-09-08T06:55:29;0.00;0.00;0.00
56495;PMS5003;42804;55.762;38.084;2023-09-08T06:57:58;0.00;0.00;0.00
56495;PMS5003;42804;55.762;38.084;2023-09-08T07:00:27;0.50;0.00;0.00
56495;PMS5003;42804;55.762;38.084;2023-09-08T07:02:59;0.50;0.00;0.00
56495;PMS5003;42804;55.762;38.084;2023-09-08T07:05:29;0.00;0.00;0.00
56495;PMS5003;42804;55.762;38.084;2023-09-08T07:07:58;0.50;0.50;0.00
56495;PMS5003;42804;55.762;38.084;2023-09-08T07:10:28;0.00;0.00;0.00
56495;PMS5003;42804;55.762;38.084;2023-09-08T07:12:57;0.00;0.00;0.00
56495;PMS5003;42804;55.762;38.084;2023-09-08T07:15:26;0.00;0.00;0.00
56495;PMS5003;42804;55.762;38.084;2023-09-08T07:17:54;0.00;0.00;0.00
56495;PMS5003;42804;55.762;38.084;2023-09-08T07:20:23;0.00;0.00;0.00
56495;PMS5003;42804;55.762;38.084;2023-09-08T07:22:51;0.25;0.00;0.00
56495;PMS5003;42804;55.762;38.084;2023-09-08T07:25:20;1.25;1.00;0.25
56495;PMS5003;42804;55.762;38.084;2023-09-08T07:27:49;0.00;0.00;0.00
56495;PMS5003;42804;55.762;38.084;2023-09-08T07:30:22;0.00;0.00;0.00
56495;PMS5003;42804;55.762;38.084;2023-09-08T07:32:50;0.00;0.00;0.00
56495;PMS5003;42804;55.762;38.084;2023-09-08T07:35:19;0.00;0.00;0.00
56495;PMS5003;42804;55.762;38.084;2023-09-08T07:37:48;0.00;0.00;0.00
56495;PMS5003;42804;55.762;38.084;2023-09-08T07:40:17;0.00;0.00;0.00
56495;PMS5003;42804;55.762;38.084;2023-09-08T07:42:45;0.50;0.50;0.00
56495;PMS5003;42804;55.762;38.084;2023-09-08T07:45:14;0.00;0.00;0.00
56495;PMS5003;42804;55.762;38.084;2023-09-08T07:47:44;0.80;0.80;0.00
56495;PMS5003;42804;55.762;38.084;2023-09-08T07:50:17;0.00;0.00;0.00
56495;PMS5003;42804;55.762;38.084;2023-09-08T07:52:47;0.80;0.00;0.00
56495;PMS5003;42804;55.762;38.084;2023-09-08T07:55:15;1.00;1.00;0.00
56495;PMS5003;42804;55.762;38.084;2023-09-08T07:57:45;0.40;0.00;0.00
56495;PMS5003;42804;55.762;38.084;2023-09-08T08:00:14;0.40;0.00;0.00
56495;PMS5003;42804;55.762;38.084;2023-09-08T08:02:46;0.00;0.00;0.00
56495;PMS5003;42804;55.762;38.084;2023-09-08T08:05:15;0.25;0.25;0.00
56495;PMS5003;42804;55.762;38.084;2023-09-08T08:07:44;0.00;0.00;0.00
56495;PMS5003;42804;55.762;38.084;2023-09-08T08:10:12;0.00;0.00;0.00
56495;PMS5003;42804;55.762;38.084;2023-09-08T08:12:41;0.00;0.00;0.00
56495;PMS5003;42804;55.762;38.084;2023-09-08T08:15:10;0.25;0.00;0.00
56495;PMS5003;42804;55.762;38.084;2023-09-08T08:17:39;0.00;0.00;0.00
56495;PMS5003;42804;55.762;38.084;2023-09-08T08:20:10;0.00;0.00;0.00
56495;PMS5003;42804;55.762;38.084;2023-09-08T08:22:45;0.80;0.00;0.00
56495;PMS5003;42804;55.762;38.084;2023-09-08T08:25:13;0.00;0.00;0.00
56495;PMS5003;42804;55.762;38.084;2023-09-08T08:27:43;0.00;0.00;0.00
56495;PMS5003;42804;55.762;38.084;2023-09-08T08:30:11;0.00;0.00;0.00
56495;PMS5003;42804;55.762;38.084;2023-09-08T08:32:47;0.60;0.00;0.00
56495;PMS5003;42804;55.762;38.084;2023-09-08T08:35:19;1.00;0.60;0.00
56495;PMS5003;42804;55.762;38.084;2023-09-08T08:37:48;0.20;0.00;0.00
56495;PMS5003;42804;55.762;38.084;2023-09-08T08:40:16;0.00;0.00;0.00
56495;PMS5003;42804;55.762;38.084;2023-09-08T08:42:45;0.25;0.25;0.00
56495;PMS5003;42804;55.762;38.084;2023-09-08T08:45:13;0.00;0.00;0.00
56495;PMS5003;42804;55.762;38.084;2023-09-08T08:47:46;0.00;0.00;0.00
56495;PMS5003;42804;55.762;38.084;2023-09-08T08:50:15;1.00;0.00;0.00
56495;PMS5003;42804;55.762;38.084;2023-09-08T08:52:46;0.20;0.00;0.00
56495;PMS5003;42804;55.762;38.084;2023-09-08T08:55:15;0.40;0.40;0.00
56495;PMS5003;42804;55.762;38.084;2023-09-08T08:57:44;0.00;0.00;0.00
56495;PMS5003;42804;55.762;38.084;2023-09-08T09:00:13;0.00;0.00;0.00
56495;PMS5003;42804;55.762;38.084;2023-09-08T09:02:44;0.00;0.00;0.00
56495;PMS5003;42804;55.762;38.084;2023-09-08T09:05:17;0.00;0.00;0.00
56495;PMS5003;42804;55.762;38.084;2023-09-08T09:07:48;0.75;0.50;0.00
56495;PMS5003;42804;55.762;38.084;2023-09-08T09:10:16;0.00;0.00;0.00
56495;PMS5003;42804;55.762;38.084;2023-09-08T09:12:45;1.25;1.25;1.00
56495;PMS5003;42804;55.762;38.084;2023-09-08T09:15:13;0.00;0.00;0.00
56495;PMS5003;42804;55.762;38.084;2023-09-08T09:17:42;2.00;1.50;1.00
56495;PMS5003;42804;55.762;38.084;2023-09-08T09:20:12;1.25;1.25;0.75
56495;PMS5003;42804;55.762;38.084;2023-09-08T09:22:41;0.50;0.25;0.25
56495;PMS5003;42804;55.762;38.084;2023-09-08T09:25:11;3.00;2.25;1.00
56495;PMS5003;42804;55.762;38.084;2023-09-08T09:27:50;1.50;1.50;1.00
56495;PMS5003;42804;55.762;38.084;2023-09-08T09:30:19;2.25;1.25;0.00
56495;PMS5003;42804;55.762;38.084;2023-09-08T09:32:47;3.50;3.25;1.00
56495;PMS5003;42804;55.762;38.084;2023-09-08T09:35:17;3.25;2.75;1.00
56495;PMS5003;42804;55.762;38.084;2023-09-08T09:37:46;3.00;3.00;1.00
56495;PMS5003;42804;55.762;38.084;2023-09-08T09:40:18;2.75;2.75;1.25
56495;PMS5003;42804;55.762;38.084;2023-09-08T09:42:46;1.25;1.25;1.00
56495;PMS5003;42804;55.762;38.084;2023-09-08T09:45:18;2.25;2.25;1.50
56495;PMS5003;42804;55.762;38.084;2023-09-08T09:47:46;4.00;3.00;2.00
56495;PMS5003;42804;55.762;38.084;2023-09-08T09:50:14;3.50;3.50;2.00
56495;PMS5003;42804;55.762;38.084;2023-09-08T09:52:56;2.75;2.00;1.00
56495;PMS5003;42804;55.762;38.084;2023-09-08T09:55:26;3.50;3.50;2.25
56495;PMS5003;42804;55.762;38.084;2023-09-08T09:57:55;3.00;1.75;0.00
56495;PMS5003;42804;55.762;38.084;2023-09-08T10:00:26;3.00;3.00;2.00
56495;PMS5003;42804;55.762;38.084;2023-09-08T10:02:56;4.00;3.75;2.00
56495;PMS5003;42804;55.762;38.084;2023-09-08T10:05:24;2.75;2.00;1.00
56495;PMS5003;42804;55.762;38.084;2023-09-08T10:07:53;4.00;3.75;2.00
56495;PMS5003;42804;55.762;38.084;2023-09-08T10:10:21;2.00;2.00;1.00
56495;PMS5003;42804;55.762;38.084;2023-09-08T10:12:53;2.00;1.50;1.00
56495;PMS5003;42804;55.762;38.084;2023-09-08T10:15:22;3.00;1.75;1.00
56495;PMS5003;42804;55.762;38.084;2023-09-08T10:17:52;3.00;2.00;1.75
56495;PMS5003;42804;55.762;38.084;2023-09-08T10:20:22;1.00;1.00;0.75
56495;PMS5003;42804;55.762;38.084;2023-09-08T10:22:52;3.25;2.00;1.50
56495;PMS5003;42804;55.762;38.084;2023-09-08T10:25:24;3.25;3.00;1.75
56495;PMS5003;42804;55.762;38.084;2023-09-08T10:27:54;0.50;0.50;0.00
56495;PMS5003;42804;55.762;38.084;2023-09-08T10:30:24;1.00;1.00;0.00
56495;PMS5003;42804;55.762;38.084;2023-09-08T10:32:52;0.00;0.00;0.00
56495;PMS5003;42804;55.762;38.084;2023-09-08T10:35:22;0.25;0.00;0.00
56495;PMS5003;42804;55.762;38.084;2023-09-08T10:37:50;3.00;1.00;0.00
56495;PMS5003;42804;55.762;38.084;2023-09-08T10:40:22;2.00;2.00;0.25
56495;PMS5003;42804;55.762;38.084;2023-09-08T10:45:36;1.00;1.00;1.00
56495;PMS5003;42804;55.762;38.084;2023-09-08T10:48:10;2.25;1.50;0.50
56495;PMS5003;42804;55.762;38.084;2023-09-08T10:50:40;1.00;1.00;0.00
56495;PMS5003;42804;55.762;38.084;2023-09-08T10:53:14;1.25;1.00;1.00
56495;PMS5003;42804;55.762;38.084;2023-09-08T10:55:43;1.00;1.00;1.00
56495;PMS5003;42804;55.762;38.084;2023-09-08T10:58:30;1.00;1.00;0.00
56495;PMS5003;42804;55.762;38.084;2023-09-08T11:01:02;1.50;1.00;0.50
56495;PMS5003;42804;55.762;38.084;2023-09-08T11:03:42;1.50;1.50;1.00
56495;PMS5003;42804;55.762;38.084;2023-09-08T11:06:16;1.00;1.00;0.00
56495;PMS5003;42804;55.762;38.084;2023-09-08T11:08:45;0.75;0.75;0.00
56495;PMS5003;42804;55.762;38.084;2023-09-08T11:11:15;1.00;1.00;0.25
56495;PMS5003;42804;55.762;38.084;2023-09-08T11:13:45;1.00;1.00;0.00
56495;PMS5003;42804;55.762;38.084;2023-09-08T11:16:15;1.00;0.25;0.25
56495;PMS5003;42804;55.762;38.084;2023-09-08T11:18:50;2.50;1.00;1.00
56495;PMS5003;42804;55.762;38.084;2023-09-08T11:21:19;2.00;2.00;1.00
56495;PMS5003;42804;55.762;38.084;2023-09-08T11:23:48;1.50;1.50;1.00
56495;PMS5003;42804;55.762;38.084;2023-09-08T11:26:16;1.00;0.75;0.25
56495;PMS5003;42804;55.762;38.084;2023-09-08T11:28:45;0.00;0.00;0.00
56495;PMS5003;42804;55.762;38.084;2023-09-08T11:31:17;1.00;0.00;0.00
56495;PMS5003;42804;55.762;38.084;2023-09-08T11:33:47;2.25;1.75;1.00
56495;PMS5003;42804;55.762;38.084;2023-09-08T11:36:17;0.75;0.00;0.00
56495;PMS5003;42804;55.762;38.084;2023-09-08T11:38:46;0.00;0.00;0.00
56495;PMS5003;42804;55.762;38.084;2023-09-08T11:41:15;1.00;1.00;0.00
56495;PMS5003;42804;55.762;38.084;2023-09-08T11:43:43;1.25;1.25;0.50
56495;PMS5003;42804;55.762;38.084;2023-09-08T11:46:15;1.00;1.00;1.00
56495;PMS5003;42804;55.762;38.084;2023-09-08T11:48:46;0.00;0.00;0.00
56495;PMS5003;42804;55.762;38.084;2023-09-08T11:51:15;0.80;0.80;0.00
56495;PMS5003;42804;55.762;38.084;2023-09-08T11:53:43;0.80;0.00;0.00
56495;PMS5003;42804;55.762;38.084;2023-09-08T11:56:12;0.00;0.00;0.00
56495;PMS5003;42804;55.762;38.084;2023-09-08T11:58:40;0.00;0.00;0.00
56495;PMS5003;42804;55.762;38.084;2023-09-08T12:01:10;0.00;0.00;0.00
56495;PMS5003;42804;55.762;38.084;2023-09-08T12:03:52;0.00;0.00;0.00
56495;PMS5003;42804;55.762;38.084;2023-09-08T12:06:23;0.20;0.00;0.00
56495;PMS5003;42804;55.762;38.084;2023-09-08T12:08:52;0.00;0.00;0.00
56495;PMS5003;42804;55.762;38.084;2023-09-08T12:11:21;0.00;0.00;0.00
56495;PMS5003;42804;55.762;38.084;2023-09-08T12:13:50;0.50;0.50;0.00
56495;PMS5003;42804;55.762;38.084;2023-09-08T12:16:18;0.50;0.50;0.00
56495;PMS5003;42804;55.762;38.084;2023-09-08T12:18:48;0.00;0.00;0.00
56495;PMS5003;42804;55.762;38.084;2023-09-08T12:21:22;0.50;0.00;0.00
56495;PMS5003;42804;55.762;38.084;2023-09-08T12:23:51;0.00;0.00;0.00
56495;PMS5003;42804;55.762;38.084;2023-09-08T12:26:20;0.50;0.50;0.00
56495;PMS5003;42804;55.762;38.084;2023-09-08T12:28:50;0.75;0.75;0.00
56495;PMS5003;42804;55.762;38.084;2023-09-08T12:31:19;2.00;1.00;0.00
56495;PMS5003;42804;55.762;38.084;2023-09-08T12:33:48;0.00;0.00;0.00
56495;PMS5003;42804;55.762;38.084;2023-09-08T12:36:18;1.40;1.00;1.00
56495;PMS5003;42804;55.762;38.084;2023-09-08T12:38:49;0.40;0.40;0.20
56495;PMS5003;42804;55.762;38.084;2023-09-08T12:41:18;1.60;1.00;0.00
56495;PMS5003;42804;55.762;38.084;2023-09-08T12:43:48;0.00;0.00;0.00
56495;PMS5003;42804;55.762;38.084;2023-09-08T12:46:16;0.67;0.00;0.00
56495;PMS5003;42804;55.762;38.084;2023-09-08T12:48:45;0.00;0.00;0.00
56495;PMS5003;42804;55.762;38.084;2023-09-08T12:51:14;1.00;1.00;0.50
56495;PMS5003;42804;55.762;38.084;2023-09-08T12:53:42;1.25;1.25;1.00
56495;PMS5003;42804;55.762;38.084;2023-09-08T12:56:14;1.00;0.50;0.00
56495;PMS5003;42804;55.762;38.084;2023-09-08T12:58:43;3.25;3.25;1.25
56495;PMS5003;42804;55.762;38.084;2023-09-08T13:01:14;3.25;2.50;1.25
56495;PMS5003;42804;55.762;38.084;2023-09-08T13:03:42;1.50;1.00;1.00
56495;PMS5003;42804;55.762;38.084;2023-09-08T13:06:11;1.00;1.00;0.75
56495;PMS5003;42804;55.762;38.084;2023-09-08T13:08:40;2.25;2.00;1.00
56495;PMS5003;42804;55.762;38.084;2023-09-08T13:11:08;2.25;2.25;2.00
56495;PMS5003;42804;55.762;38.084;2023-09-08T13:13:39;3.00;3.00;2.00
56495;PMS5003;42804;55.762;38.084;2023-09-08T13:16:08;3.00;3.00;2.00
56495;PMS5003;42804;55.762;38.084;2023-09-08T13:18:36;2.75;2.75;1.75
56495;PMS5003;42804;55.762;38.084;2023-09-08T13:21:05;4.00;4.00;2.25
56495;PMS5003;42804;55.762;38.084;2023-09-08T13:23:34;5.00;5.00;3.00
56495;PMS5003;42804;55.762;38.084;2023-09-08T13:26:03;5.00;4.00;3.00
56495;PMS5003;42804;55.762;38.084;2023-09-08T13:28:31;5.75;4.50;3.00
56495;PMS5003;42804;55.762;38.084;2023-09-08T13:31:03;8.50;8.00;5.25
56495;PMS5003;42804;55.762;38.084;2023-09-08T13:33:31;4.00;3.75;2.75
56495;PMS5003;42804;55.762;38.084;2023-09-08T13:36:00;2.50;1.75;1.00
56495;PMS5003;42804;55.762;38.084;2023-09-08T13:38:29;8.00;8.00;4.50
56495;PMS5003;42804;55.762;38.084;2023-09-08T13:40:58;6.50;5.00;3.00
56495;PMS5003;42804;55.762;38.084;2023-09-08T13:43:27;7.00;7.00;4.00
56495;PMS5003;42804;55.762;38.084;2023-09-08T13:45:55;6.50;6.50;4.50
56495;PMS5003;42804;55.762;38.084;2023-09-08T13:48:26;4.00;3.00;2.00
56495;PMS5003;42804;55.762;38.084;2023-09-08T13:50:55;6.00;5.25;4.00
56495;PMS5003;42804;55.762;38.084;2023-09-08T13:53:25;6.00;6.00;4.00
56495;PMS5003;42804;55.762;38.084;2023-09-08T13:56:08;3.00;3.00;3.00
56495;PMS5003;42804;55.762;38.084;2023-09-08T13:58:40;6.00;5.25;4.00
56495;PMS5003;42804;55.762;38.084;2023-09-08T14:01:16;7.75;7.00;4.25
56495;PMS5003;42804;55.762;38.084;2023-09-08T14:03:48;4.00;4.00;1.75
56495;PMS5003;42804;55.762;38.084;2023-09-08T14:06:22;5.00;5.00;3.50
56495;PMS5003;42804;55.762;38.084;2023-09-08T14:08:57;7.25;5.00;2.50
56495;PMS5003;42804;55.762;38.084;2023-09-08T14:11:28;4.25;4.25;3.00
56495;PMS5003;42804;55.762;38.084;2023-09-08T14:14:00;6.75;6.75;4.50
56495;PMS5003;42804;55.762;38.084;2023-09-08T14:16:30;9.00;8.00;5.00
56495;PMS5003;42804;55.762;38.084;2023-09-08T14:19:00;4.75;4.75;3.50
56495;PMS5003;42804;55.762;38.084;2023-09-08T14:21:29;8.25;8.25;6.50
56495;PMS5003;42804;55.762;38.084;2023-09-08T14:23:59;7.75;7.75;4.25
56495;PMS5003;42804;55.762;38.084;2023-09-08T14:26:28;8.00;7.00;4.75
56495;PMS5003;42804;55.762;38.084;2023-09-08T14:28:57;6.25;6.25;4.00